sensor_id;sensor_type;location;lat;lon;timestamp;pressure;altitude;pressure_sealevel;temperature;humidity
50859;BME280;36826;47.514;19.056;2023-02-28T00:00:50;101218.75;;;5.51;45.45
50859;BME280;36826;47.514;19.056;2023-02-28T00:03:16;101219.78;;;6.02;45.11
50859;BME280;36826;47.514;19.056;2023-02-28T00:05:41;101224.81;;;5.89;45.82
50859;BME280;36826;47.514;19.056;2023-02-28T00:08:07;101223.81;;;6.42;44.12
50859;BME280;36826;47.514;19.056;2023-02-28T00:10:33;101227.34;;;6.59;43.64
50859;BME280;36826;47.514;19.056;2023-02-28T00:13:03;101231.81;;;6.58;43.56
50859;BME280;36826;47.514;19.056;2023-02-28T00:15:29;101236.03;;;6.79;43.28
50859;BME280;36826;47.514;19.056;2023-02-28T00:17:55;101241.66;;;6.90;42.81
50859;BME280;36826;47.514;19.056;2023-02-28T00:20:20;101245.75;;;6.80;43.16
50859;BME280;36826;47.514;19.056;2023-02-28T00:22:50;101238.00;;;6.91;43.00
50859;BME280;36826;47.514;19.056;2023-02-28T00:25:19;101243.50;;;6.72;43.13
50859;BME280;36826;47.514;19.056;2023-02-28T00:27:46;101239.63;;;6.12;44.17
50859;BME280;36826;47.514;19.056;2023-02-28T00:30:17;101244.09;;;6.61;43.52
50859;BME280;36826;47.514;19.056;2023-02-28T00:32:43;101240.78;;;5.89;44.12
50859;BME280;36826;47.514;19.056;2023-02-28T00:35:10;101253.59;;;5.28;45.60
50859;BME280;36826;47.514;19.056;2023-02-28T00:37:35;101248.16;;;6.01;44.89
50859;BME280;36826;47.514;19.056;2023-02-28T00:40:01;101249.22;;;6.14;44.18
50859;BME280;36826;47.514;19.056;2023-02-28T00:42:29;101251.91;;;5.97;43.71
50859;BME280;36826;47.514;19.056;2023-02-28T00:44:55;101254.50;;;5.27;44.92
50859;BME280;36826;47.514;19.056;2023-02-28T00:47:20;101249.72;;;5.52;44.53
50859;BME280;36826;47.514;19.056;2023-02-28T00:49:46;101246.66;;;5.60;44.21
50859;BME280;36826;47.514;19.056;2023-02-28T00:52:11;101256.13;;;5.83;44.16
50859;BME280;36826;47.514;19.056;2023-02-28T00:54:36;101260.34;;;5.70;44.34
50859;BME280;36826;47.514;19.056;2023-02-28T00:57:02;101250.81;;;5.83;43.67
50859;BME280;36826;47.514;19.056;2023-02-28T00:59:28;101257.22;;;5.97;43.37
50859;BME280;36826;47.514;19.056;2023-02-28T01:01:53;101260.56;;;5.48;43.53
50859;BME280;36826;47.514;19.056;2023-02-28T01:04:19;101255.44;;;5.26;44.18
50859;BME280;36826;47.514;19.056;2023-02-28T01:06:44;101255.81;;;5.55;44.34
50859;BME280;36826;47.514;19.056;2023-02-28T01:09:10;101248.16;;;5.66;43.89
50859;BME280;36826;47.514;19.056;2023-02-28T01:11:36;101249.41;;;5.76;44.29
50859;BME280;36826;47.514;19.056;2023-02-28T01:14:02;101250.19;;;5.61;44.45
50859;BME280;36826;47.514;19.056;2023-02-28T01:16:29;101256.53;;;5.93;43.82
50859;BME280;36826;47.514;19.056;2023-02-28T01:18:54;101260.63;;;6.34;43.25
50859;BME280;36826;47.514;19.056;2023-02-28T01:21:21;101252.53;;;6.20;43.73
50859;BME280;36826;47.514;19.056;2023-02-28T01:23:48;101253.22;;;6.23;44.09
50859;BME280;36826;47.514;19.056;2023-02-28T01:26:15;101255.81;;;5.90;44.03
50859;BME280;36826;47.514;19.056;2023-02-28T01:28:41;101261.28;;;5.34;46.04
50859;BME280;36826;47.514;19.056;2023-02-28T01:31:07;101250.59;;;6.39;44.28
50859;BME280;36826;47.514;19.056;2023-02-28T01:33:33;101256.38;;;6.80;43.74
50859;BME280;36826;47.514;19.056;2023-02-28T01:36:11;101255.53;;;6.79;43.42
50859;BME280;36826;47.514;19.056;2023-02-28T01:38:37;101257.78;;;6.87;43.42
50859;BME280;36826;47.514;19.056;2023-02-28T01:41:03;101260.19;;;6.75;44.18
50859;BME280;36826;47.514;19.056;2023-02-28T01:43:54;101260.25;;;6.74;44.60
50859;BME280;36826;47.514;19.056;2023-02-28T01:46:17;101251.84;;;6.16;46.37
50859;BME280;36826;47.514;19.056;2023-02-28T01:48:48;101255.97;;;5.87;47.29
50859;BME280;36826;47.514;19.056;2023-02-28T01:51:28;101249.53;;;5.38;48.56
50859;BME280;36826;47.514;19.056;2023-02-28T01:53:59;101256.38;;;5.79;48.35
50859;BME280;36826;47.514;19.056;2023-02-28T01:56:29;101253.69;;;5.61;48.41
50859;BME280;36826;47.514;19.056;2023-02-28T01:58:56;101255.19;;;5.67;49.05
50859;BME280;36826;47.514;19.056;2023-02-28T02:01:22;101256.00;;;5.32;49.32
50859;BME280;36826;47.514;19.056;2023-02-28T02:03:50;101248.69;;;5.73;49.00
50859;BME280;36826;47.514;19.056;2023-02-28T02:06:34;101250.69;;;5.32;49.08
50859;BME280;36826;47.514;19.056;2023-02-28T02:09:01;101248.75;;;5.36;48.55
50859;BME280;36826;47.514;19.056;2023-02-28T02:11:26;101243.78;;;5.82;47.03
50859;BME280;36826;47.514;19.056;2023-02-28T02:30:26;101240.03;;;5.87;46.79
50859;BME280;36826;47.514;19.056;2023-02-28T02:41:41;101243.31;;;6.09;46.78
50859;BME280;36826;47.514;19.056;2023-02-28T02:44:15;101240.72;;;6.41;46.00
50859;BME280;36826;47.514;19.056;2023-02-28T02:46:45;101240.38;;;6.32;46.71
50859;BME280;36826;47.514;19.056;2023-02-28T02:49:20;101251.34;;;5.90;47.00
50859;BME280;36826;47.514;19.056;2023-02-28T02:51:48;101252.22;;;6.26;46.13
50859;BME280;36826;47.514;19.056;2023-02-28T02:54:17;101244.69;;;6.50;46.19
50859;BME280;36826;47.514;19.056;2023-02-28T02:56:47;101248.88;;;6.05;46.51
50859;BME280;36826;47.514;19.056;2023-02-28T02:59:17;101251.28;;;5.20;47.56
50859;BME280;36826;47.514;19.056;2023-02-28T03:01:53;101247.50;;;4.70;48.71
50859;BME280;36826;47.514;19.056;2023-02-28T03:04:22;101254.50;;;5.27;48.39
50859;BME280;36826;47.514;19.056;2023-02-28T03:06:50;101253.06;;;6.26;46.92
50859;BME280;36826;47.514;19.056;2023-02-28T03:09:23;101254.41;;;5.82;47.19
50859;BME280;36826;47.514;19.056;2023-02-28T03:11:51;101254.47;;;5.81;47.32
50859;BME280;36826;47.514;19.056;2023-02-28T03:14:48;101257.53;;;5.91;46.85
50859;BME280;36826;47.514;19.056;2023-02-28T03:17:49;101262.81;;;5.20;49.17
50859;BME280;36826;47.514;19.056;2023-02-28T03:20:35;101263.13;;;6.04;47.29
50859;BME280;36826;47.514;19.056;2023-02-28T03:25:54;101254.56;;;6.14;47.42
50859;BME280;36826;47.514;19.056;2023-02-28T03:28:42;101255.19;;;5.84;47.76
50859;BME280;36826;47.514;19.056;2023-02-28T03:33:41;101259.09;;;4.86;48.30
50859;BME280;36826;47.514;19.056;2023-02-28T03:36:15;101259.81;;;5.09;48.14
50859;BME280;36826;47.514;19.056;2023-02-28T03:38:56;101258.44;;;5.37;47.23
50859;BME280;36826;47.514;19.056;2023-02-28T03:41:31;101263.25;;;4.73;49.19
50859;BME280;36826;47.514;19.056;2023-02-28T03:44:03;101264.97;;;4.74;48.41
50859;BME280;36826;47.514;19.056;2023-02-28T03:46:36;101257.91;;;5.11;48.52
50859;BME280;36826;47.514;19.056;2023-02-28T03:49:15;101254.66;;;4.68;48.83
50859;BME280;36826;47.514;19.056;2023-02-28T03:51:42;101260.53;;;5.30;47.94
50859;BME280;36826;47.514;19.056;2023-02-28T03:54:13;101265.59;;;5.17;47.72
50859;BME280;36826;47.514;19.056;2023-02-28T03:56:48;101259.06;;;5.42;46.76
50859;BME280;36826;47.514;19.056;2023-02-28T03:59:27;101254.78;;;5.57;46.22
50859;BME280;36826;47.514;19.056;2023-02-28T04:01:54;101259.72;;;5.47;46.12
50859;BME280;36826;47.514;19.056;2023-02-28T04:04:20;101256.47;;;6.12;45.14
50859;BME280;36826;47.514;19.056;2023-02-28T04:06:49;101258.28;;;5.40;46.23
50859;BME280;36826;47.514;19.056;2023-02-28T04:09:15;101252.94;;;6.45;45.14
50859;BME280;36826;47.514;19.056;2023-02-28T04:11:48;101249.00;;;6.19;44.80
50859;BME280;36826;47.514;19.056;2023-02-28T04:14:16;101249.72;;;5.35;46.25
50859;BME280;36826;47.514;19.056;2023-02-28T04:16:42;101255.69;;;5.21;46.20
50859;BME280;36826;47.514;19.056;2023-02-28T04:19:08;101256.72;;;5.36;45.29
50859;BME280;36826;47.514;19.056;2023-02-28T04:21:42;101254.88;;;6.08;44.81
50859;BME280;36826;47.514;19.056;2023-02-28T04:24:10;101250.19;;;5.61;45.17
50859;BME280;36826;47.514;19.056;2023-02-28T04:26:40;101238.84;;;5.92;44.72
50859;BME280;36826;47.514;19.056;2023-02-28T04:29:06;101241.38;;;6.29;44.11
50859;BME280;36826;47.514;19.056;2023-02-28T04:31:32;101246.88;;;6.26;44.11
50859;BME280;36826;47.514;19.056;2023-02-28T04:33:58;101239.03;;;6.56;43.51
50859;BME280;36826;47.514;19.056;2023-02-28T04:36:23;101244.16;;;6.10;43.82
50859;BME280;36826;47.514;19.056;2023-02-28T04:38:49;101242.94;;;6.33;43.42
50859;BME280;36826;47.514;19.056;2023-02-28T04:41:15;101242.25;;;6.29;43.42
50859;BME280;36826;47.514;19.056;2023-02-28T04:43:40;101248.00;;;6.04;43.54
50859;BME280;36826;47.514;19.056;2023-02-28T04:46:06;101248.31;;;5.45;45.03
50859;BME280;36826;47.514;19.056;2023-02-28T04:48:35;101242.97;;;5.28;45.00
50859;BME280;36826;47.514;19.056;2023-02-28T04:51:01;101241.56;;;5.20;45.18
50859;BME280;36826;47.514;19.056;2023-02-28T04:53:27;101241.66;;;4.81;46.13
50859;BME280;36826;47.514;19.056;2023-02-28T04:55:54;101249.56;;;4.44;46.40
50859;BME280;36826;47.514;19.056;2023-02-28T04:58:20;101246.09;;;5.36;45.41
50859;BME280;36826;47.514;19.056;2023-02-28T05:00:48;101241.13;;;5.47;45.61
50859;BME280;36826;47.514;19.056;2023-02-28T05:03:13;101242.06;;;5.99;44.59
50859;BME280;36826;47.514;19.056;2023-02-28T05:05:39;101242.69;;;5.69;44.60
50859;BME280;36826;47.514;19.056;2023-02-28T05:08:04;101246.53;;;6.32;43.85
50859;BME280;36826;47.514;19.056;2023-02-28T05:10:30;101237.13;;;6.42;43.64
50859;BME280;36826;47.514;19.056;2023-02-28T05:12:56;101244.22;;;6.75;43.41
50859;BME280;36826;47.514;19.056;2023-02-28T05:15:22;101242.56;;;6.57;43.67
50859;BME280;36826;47.514;19.056;2023-02-28T05:17:47;101250.47;;;5.90;44.97
50859;BME280;36826;47.514;19.056;2023-02-28T05:20:13;101250.78;;;6.36;43.76
50859;BME280;36826;47.514;19.056;2023-02-28T05:22:42;101251.97;;;6.31;44.12
50859;BME280;36826;47.514;19.056;2023-02-28T05:25:20;101251.72;;;6.51;43.88
50859;BME280;36826;47.514;19.056;2023-02-28T05:27:46;101253.47;;;6.01;44.15
50859;BME280;36826;47.514;19.056;2023-02-28T05:30:12;101250.53;;;6.57;43.50
50859;BME280;36826;47.514;19.056;2023-02-28T05:32:39;101248.66;;;6.59;42.96
50859;BME280;36826;47.514;19.056;2023-02-28T05:35:09;101255.72;;;6.76;42.96
50859;BME280;36826;47.514;19.056;2023-02-28T05:37:35;101255.16;;;6.37;43.59
50859;BME280;36826;47.514;19.056;2023-02-28T05:40:00;101255.44;;;6.81;43.00
50859;BME280;36826;47.514;19.056;2023-02-28T05:42:26;101252.53;;;6.20;43.35
50859;BME280;36826;47.514;19.056;2023-02-28T05:44:51;101262.88;;;5.73;44.50
50859;BME280;36826;47.514;19.056;2023-02-28T05:47:17;101258.50;;;6.41;43.31
50859;BME280;36826;47.514;19.056;2023-02-28T05:49:42;101252.88;;;6.95;43.00
50859;BME280;36826;47.514;19.056;2023-02-28T05:52:08;101266.22;;;6.12;43.90
50859;BME280;36826;47.514;19.056;2023-02-28T05:54:33;101272.25;;;5.98;43.92
50859;BME280;36826;47.514;19.056;2023-02-28T05:56:59;101274.09;;;5.78;44.64
50859;BME280;36826;47.514;19.056;2023-02-28T05:59:24;101275.19;;;6.27;43.40
50859;BME280;36826;47.514;19.056;2023-02-28T06:01:50;101276.91;;;6.28;43.39
50859;BME280;36826;47.514;19.056;2023-02-28T06:04:17;101279.25;;;6.68;42.87
50859;BME280;36826;47.514;19.056;2023-02-28T06:06:48;101275.59;;;6.53;43.32
50859;BME280;36826;47.514;19.056;2023-02-28T06:09:14;101268.94;;;5.75;43.74
50859;BME280;36826;47.514;19.056;2023-02-28T06:11:40;101282.84;;;6.67;43.23
50859;BME280;36826;47.514;19.056;2023-02-28T06:14:06;101284.59;;;6.84;43.46
50859;BME280;36826;47.514;19.056;2023-02-28T06:16:33;101279.03;;;6.55;42.85
50859;BME280;36826;47.514;19.056;2023-02-28T06:19:01;101284.03;;;6.27;43.02
50859;BME280;36826;47.514;19.056;2023-02-28T06:21:27;101277.03;;;7.24;42.49
50859;BME280;36826;47.514;19.056;2023-02-28T06:23:53;101286.44;;;7.46;42.21
50859;BME280;36826;47.514;19.056;2023-02-28T06:26:20;101282.03;;;7.91;42.46
50859;BME280;36826;47.514;19.056;2023-02-28T06:28:46;101280.56;;;7.71;42.17
50859;BME280;36826;47.514;19.056;2023-02-28T06:31:14;101290.56;;;6.22;44.50
50859;BME280;36826;47.514;19.056;2023-02-28T06:33:40;101287.78;;;6.90;44.05
50859;BME280;36826;47.514;19.056;2023-02-28T06:36:07;101297.63;;;7.36;42.89
50859;BME280;36826;47.514;19.056;2023-02-28T06:38:33;101298.00;;;7.77;41.96
50859;BME280;36826;47.514;19.056;2023-02-28T06:40:59;101287.06;;;7.81;42.01
50859;BME280;36826;47.514;19.056;2023-02-28T06:43:28;101295.00;;;7.97;41.55
50859;BME280;36826;47.514;19.056;2023-02-28T06:45:55;101296.50;;;7.87;41.47
50859;BME280;36826;47.514;19.056;2023-02-28T06:48:22;101304.63;;;8.45;40.56
50859;BME280;36826;47.514;19.056;2023-02-28T06:50:48;101300.72;;;7.91;40.47
50859;BME280;36826;47.514;19.056;2023-02-28T06:53:13;101303.25;;;8.23;40.49
50859;BME280;36826;47.514;19.056;2023-02-28T06:55:40;101295.47;;;8.64;39.64
50859;BME280;36826;47.514;19.056;2023-02-28T06:58:05;101297.72;;;8.99;39.27
50859;BME280;36826;47.514;19.056;2023-02-28T07:00:43;101292.78;;;8.93;39.01
50859;BME280;36826;47.514;19.056;2023-02-28T07:03:10;101298.63;;;9.27;38.81
50859;BME280;36826;47.514;19.056;2023-02-28T07:05:37;101291.41;;;9.00;38.58
50859;BME280;36826;47.514;19.056;2023-02-28T07:08:04;101296.78;;;9.95;37.89
50859;BME280;36826;47.514;19.056;2023-02-28T07:10:30;101303.78;;;10.23;37.36
50859;BME280;36826;47.514;19.056;2023-02-28T07:12:56;101313.50;;;8.01;39.97
50859;BME280;36826;47.514;19.056;2023-02-28T07:15:21;101308.78;;;10.02;38.19
50859;BME280;36826;47.514;19.056;2023-02-28T07:17:47;101309.72;;;10.54;37.16
50859;BME280;36826;47.514;19.056;2023-02-28T07:20:12;101321.22;;;8.50;38.84
50859;BME280;36826;47.514;19.056;2023-02-28T07:22:38;101325.53;;;10.06;37.11
50859;BME280;36826;47.514;19.056;2023-02-28T07:25:04;101319.09;;;9.68;37.93
50859;BME280;36826;47.514;19.056;2023-02-28T07:27:30;101317.28;;;10.22;36.85
50859;BME280;36826;47.514;19.056;2023-02-28T07:29:55;101311.22;;;9.79;37.06
50859;BME280;36826;47.514;19.056;2023-02-28T07:32:21;101314.22;;;10.67;35.95
50859;BME280;36826;47.514;19.056;2023-02-28T07:34:46;101315.56;;;10.98;35.18
50859;BME280;36826;47.514;19.056;2023-02-28T07:37:12;101318.81;;;11.52;35.40
50859;BME280;36826;47.514;19.056;2023-02-28T07:39:37;101322.28;;;11.65;35.02
50859;BME280;36826;47.514;19.056;2023-02-28T07:42:06;101323.06;;;12.03;34.45
50859;BME280;36826;47.514;19.056;2023-02-28T07:44:35;101319.72;;;12.24;34.57
50859;BME280;36826;47.514;19.056;2023-02-28T07:47:06;101324.75;;;12.51;33.85
50859;BME280;36826;47.514;19.056;2023-02-28T07:49:32;101316.22;;;12.80;33.22
50859;BME280;36826;47.514;19.056;2023-02-28T07:51:57;101319.00;;;12.56;33.75
50859;BME280;36826;47.514;19.056;2023-02-28T07:54:23;101319.38;;;13.08;32.83
50859;BME280;36826;47.514;19.056;2023-02-28T07:56:48;101321.06;;;12.41;32.89
50859;BME280;36826;47.514;19.056;2023-02-28T07:59:14;101320.34;;;12.62;33.21
50859;BME280;36826;47.514;19.056;2023-02-28T08:01:39;101323.25;;;13.15;33.57
50859;BME280;36826;47.514;19.056;2023-02-28T08:04:06;101320.16;;;13.31;32.03
50859;BME280;36826;47.514;19.056;2023-02-28T08:06:32;101315.84;;;13.84;31.19
50859;BME280;36826;47.514;19.056;2023-02-28T08:08:57;101314.47;;;14.53;31.21
50859;BME280;36826;47.514;19.056;2023-02-28T08:11:23;101312.94;;;15.52;29.95
50859;BME280;36826;47.514;19.056;2023-02-28T08:13:48;101318.94;;;14.64;29.96
50859;BME280;36826;47.514;19.056;2023-02-28T08:16:14;101315.47;;;15.44;29.96
50859;BME280;36826;47.514;19.056;2023-02-28T08:18:42;101307.53;;;16.21;28.78
50859;BME280;36826;47.514;19.056;2023-02-28T08:21:09;101314.94;;;16.66;28.44
50859;BME280;36826;47.514;19.056;2023-02-28T08:23:35;101323.81;;;16.86;28.55
50859;BME280;36826;47.514;19.056;2023-02-28T08:26:01;101308.56;;;17.77;27.46
50859;BME280;36826;47.514;19.056;2023-02-28T08:28:26;101315.69;;;18.15;26.89
50859;BME280;36826;47.514;19.056;2023-02-28T08:30:52;101318.38;;;18.67;26.23
50859;BME280;36826;47.514;19.056;2023-02-28T08:33:17;101306.84;;;18.65;26.17
50859;BME280;36826;47.514;19.056;2023-02-28T08:35:43;101304.03;;;19.18;25.93
50859;BME280;36826;47.514;19.056;2023-02-28T08:38:08;101307.91;;;19.91;24.80
50859;BME280;36826;47.514;19.056;2023-02-28T08:40:34;101312.69;;;20.06;24.50
50859;BME280;36826;47.514;19.056;2023-02-28T08:42:59;101310.06;;;20.29;24.61
50859;BME280;36826;47.514;19.056;2023-02-28T08:45:25;101304.81;;;21.24;23.76
50859;BME280;36826;47.514;19.056;2023-02-28T08:47:51;101310.44;;;20.10;23.86
50859;BME280;36826;47.514;19.056;2023-02-28T08:50:18;101307.56;;;19.86;23.92
50859;BME280;36826;47.514;19.056;2023-02-28T08:52:43;101318.75;;;19.67;24.41
50859;BME280;36826;47.514;19.056;2023-02-28T08:55:09;101303.44;;;19.74;24.05
50859;BME280;36826;47.514;19.056;2023-02-28T08:57:35;101300.44;;;20.02;23.74
50859;BME280;36826;47.514;19.056;2023-02-28T09:00:01;101304.13;;;19.84;24.04
50859;BME280;36826;47.514;19.056;2023-02-28T09:02:32;101302.19;;;19.27;24.49
50859;BME280;36826;47.514;19.056;2023-02-28T09:04:58;101300.66;;;19.24;24.80
50859;BME280;36826;47.514;19.056;2023-02-28T09:07:24;101306.38;;;18.44;25.40
50859;BME280;36826;47.514;19.056;2023-02-28T09:09:49;101312.81;;;17.26;26.41
50859;BME280;36826;47.514;19.056;2023-02-28T09:12:28;101305.41;;;17.64;26.38
50859;BME280;36826;47.514;19.056;2023-02-28T09:14:57;101308.53;;;18.66;25.73
50859;BME280;36826;47.514;19.056;2023-02-28T09:17:22;101300.16;;;17.81;25.91
50859;BME280;36826;47.514;19.056;2023-02-28T09:19:48;101304.34;;;19.07;25.17
50859;BME280;36826;47.514;19.056;2023-02-28T09:22:14;101316.50;;;18.33;25.73
50859;BME280;36826;47.514;19.056;2023-02-28T09:24:40;101301.66;;;18.46;25.97
50859;BME280;36826;47.514;19.056;2023-02-28T09:27:05;101309.34;;;16.78;27.12
50859;BME280;36826;47.514;19.056;2023-02-28T09:29:32;101314.00;;;17.77;26.89
50859;BME280;36826;47.514;19.056;2023-02-28T09:31:58;101312.28;;;17.94;26.63
50859;BME280;36826;47.514;19.056;2023-02-28T09:34:25;101324.00;;;17.59;26.39
50859;BME280;36826;47.514;19.056;2023-02-28T09:36:51;101320.91;;;17.08;26.96
50859;BME280;36826;47.514;19.056;2023-02-28T09:39:23;101320.53;;;16.55;27.66
50859;BME280;36826;47.514;19.056;2023-02-28T09:41:51;101324.50;;;16.61;27.39
50859;BME280;36826;47.514;19.056;2023-02-28T09:44:37;101317.53;;;16.58;27.77
50859;BME280;36826;47.514;19.056;2023-02-28T09:47:40;101317.00;;;17.38;27.47
50859;BME280;36826;47.514;19.056;2023-02-28T09:52:59;101312.47;;;16.73;27.84
50859;BME280;36826;47.514;19.056;2023-02-28T09:55:33;101315.19;;;16.25;28.27
50859;BME280;36826;47.514;19.056;2023-02-28T09:58:03;101315.47;;;16.22;27.85
50859;BME280;36826;47.514;19.056;2023-02-28T10:00:39;101313.66;;;15.54;28.46
50859;BME280;36826;47.514;19.056;2023-02-28T10:03:30;101322.16;;;11.91;32.92
50859;BME280;36826;47.514;19.056;2023-02-28T10:06:02;101318.00;;;13.69;30.48
50859;BME280;36826;47.514;19.056;2023-02-28T10:08:37;101302.97;;;15.53;29.19
50859;BME280;36826;47.514;19.056;2023-02-28T10:11:10;101311.56;;;12.94;32.29
50859;BME280;36826;47.514;19.056;2023-02-28T10:16:26;101305.06;;;14.79;30.38
50859;BME280;36826;47.514;19.056;2023-02-28T10:19:20;101304.72;;;16.13;28.88
50859;BME280;36826;47.514;19.056;2023-02-28T10:21:59;101297.50;;;17.16;28.06
50859;BME280;36826;47.514;19.056;2023-02-28T10:24:39;101296.50;;;15.04;29.33
50859;BME280;36826;47.514;19.056;2023-02-28T10:27:14;101291.19;;;15.44;28.98
50859;BME280;36826;47.514;19.056;2023-02-28T10:29:42;101299.16;;;15.55;28.96
50859;BME280;36826;47.514;19.056;2023-02-28T10:32:10;101293.47;;;15.78;28.91
50859;BME280;36826;47.514;19.056;2023-02-28T10:34:36;101285.53;;;16.06;28.70
50859;BME280;36826;47.514;19.056;2023-02-28T10:37:03;101287.63;;;15.63;28.61
50859;BME280;36826;47.514;19.056;2023-02-28T10:39:46;101288.44;;;16.32;28.44
50859;BME280;36826;47.514;19.056;2023-02-28T10:42:29;101280.25;;;15.75;28.99
50859;BME280;36826;47.514;19.056;2023-02-28T10:45:15;101284.00;;;14.10;30.98
50859;BME280;36826;47.514;19.056;2023-02-28T10:47:55;101277.44;;;14.03;31.63
50859;BME280;36826;47.514;19.056;2023-02-28T10:50:32;101279.91;;;14.99;30.43
50859;BME280;36826;47.514;19.056;2023-02-28T10:58:23;101272.22;;;16.32;28.90
50859;BME280;36826;47.514;19.056;2023-02-28T11:00:51;101269.03;;;15.89;29.16
50859;BME280;36826;47.514;19.056;2023-02-28T11:03:29;101269.13;;;15.19;29.34
50859;BME280;36826;47.514;19.056;2023-02-28T11:05:55;101267.16;;;15.21;29.71
50859;BME280;36826;47.514;19.056;2023-02-28T11:08:20;101264.41;;;15.11;30.11
50859;BME280;36826;47.514;19.056;2023-02-28T11:10:48;101266.28;;;13.87;31.03
50859;BME280;36826;47.514;19.056;2023-02-28T11:13:20;101267.41;;;15.18;30.37
50859;BME280;36826;47.514;19.056;2023-02-28T11:15:55;101260.94;;;15.89;30.08
50859;BME280;36826;47.514;19.056;2023-02-28T11:18:27;101268.56;;;16.14;30.25
50859;BME280;36826;47.514;19.056;2023-02-28T11:20:55;101265.81;;;16.71;28.91
50859;BME280;36826;47.514;19.056;2023-02-28T11:23:25;101256.06;;;16.78;28.81
50859;BME280;36826;47.514;19.056;2023-02-28T11:25:54;101261.13;;;16.91;28.71
50859;BME280;36826;47.514;19.056;2023-02-28T11:28:29;101257.88;;;17.15;28.32
50859;BME280;36826;47.514;19.056;2023-02-28T11:31:08;101257.81;;;15.64;29.68
50859;BME280;36826;47.514;19.056;2023-02-28T11:36:25;101250.25;;;14.68;31.22
50859;BME280;36826;47.514;19.056;2023-02-28T11:38:53;101262.50;;;14.20;31.49
50859;BME280;36826;47.514;19.056;2023-02-28T11:46:45;101256.34;;;14.08;33.11
50859;BME280;36826;47.514;19.056;2023-02-28T11:56:58;101255.09;;;12.59;34.94
50859;BME280;36826;47.514;19.056;2023-02-28T12:10:29;101227.72;;;16.17;30.65
50859;BME280;36826;47.514;19.056;2023-02-28T12:16:05;101231.81;;;16.31;30.43
50859;BME280;36826;47.514;19.056;2023-02-28T12:21:28;101219.44;;;15.51;30.20
50859;BME280;36826;47.514;19.056;2023-02-28T12:27:00;101209.06;;;14.66;31.49
50859;BME280;36826;47.514;19.056;2023-02-28T12:29:28;101216.16;;;15.18;31.29
50859;BME280;36826;47.514;19.056;2023-02-28T12:32:09;101205.25;;;15.29;31.47
50859;BME280;36826;47.514;19.056;2023-02-28T12:34:52;101208.59;;;15.90;31.00
50859;BME280;36826;47.514;19.056;2023-02-28T12:37:42;101198.03;;;16.07;30.74
50859;BME280;36826;47.514;19.056;2023-02-28T12:40:14;101191.47;;;16.09;30.64
50859;BME280;36826;47.514;19.056;2023-02-28T12:42:59;101193.25;;;15.81;31.33
50859;BME280;36826;47.514;19.056;2023-02-28T12:45:50;101194.13;;;15.52;31.40
50859;BME280;36826;47.514;19.056;2023-02-28T12:48:29;101204.53;;;13.09;34.13
50859;BME280;36826;47.514;19.056;2023-02-28T12:50:57;101200.97;;;13.19;34.70
50859;BME280;36826;47.514;19.056;2023-02-28T12:53:28;101195.06;;;13.79;34.25
50859;BME280;36826;47.514;19.056;2023-02-28T12:58:33;101200.94;;;13.31;34.30
50859;BME280;36826;47.514;19.056;2023-02-28T13:09:27;101198.78;;;14.09;33.98
50859;BME280;36826;47.514;19.056;2023-02-28T13:11:55;101192.44;;;13.68;34.76
50859;BME280;36826;47.514;19.056;2023-02-28T13:14:30;101187.88;;;14.42;34.00
50859;BME280;36826;47.514;19.056;2023-02-28T13:19:36;101181.13;;;12.99;35.43
50859;BME280;36826;47.514;19.056;2023-02-28T13:22:02;101184.41;;;13.99;34.37
50859;BME280;36826;47.514;19.056;2023-02-28T13:24:43;101181.56;;;12.61;36.44
50859;BME280;36826;47.514;19.056;2023-02-28T13:29:37;101184.50;;;12.35;36.56
50859;BME280;36826;47.514;19.056;2023-02-28T13:34:38;101175.22;;;13.05;35.66
50859;BME280;36826;47.514;19.056;2023-02-28T13:39:54;101185.84;;;12.63;36.65
50859;BME280;36826;47.514;19.056;2023-02-28T13:42:34;101170.84;;;12.38;37.12
50859;BME280;36826;47.514;19.056;2023-02-28T13:47:29;101160.59;;;12.32;37.31
50859;BME280;36826;47.514;19.056;2023-02-28T13:50:35;101165.84;;;12.45;37.14
50859;BME280;36826;47.514;19.056;2023-02-28T14:06:52;101147.63;;;12.37;37.79
50859;BME280;36826;47.514;19.056;2023-02-28T14:09:23;101141.56;;;12.79;36.69
50859;BME280;36826;47.514;19.056;2023-02-28T14:11:50;101136.78;;;13.47;36.28
50859;BME280;36826;47.514;19.056;2023-02-28T14:17:01;101145.81;;;11.33;38.49
50859;BME280;36826;47.514;19.056;2023-02-28T14:19:30;101141.25;;;11.70;38.20
50859;BME280;36826;47.514;19.056;2023-02-28T14:36:12;101143.47;;;11.87;37.71
50859;BME280;36826;47.514;19.056;2023-02-28T14:41:30;101133.69;;;11.63;38.78
50859;BME280;36826;47.514;19.056;2023-02-28T14:43:58;101135.19;;;12.24;37.72
50859;BME280;36826;47.514;19.056;2023-02-28T14:46:37;101131.66;;;12.01;37.84
50859;BME280;36826;47.514;19.056;2023-02-28T14:49:12;101134.09;;;12.04;37.89
50859;BME280;36826;47.514;19.056;2023-02-28T14:51:38;101128.13;;;12.12;37.91
50859;BME280;36826;47.514;19.056;2023-02-28T14:54:04;101133.56;;;11.18;38.84
50859;BME280;36826;47.514;19.056;2023-02-28T14:56:37;101124.91;;;10.41;40.57
50859;BME280;36826;47.514;19.056;2023-02-28T14:59:04;101134.47;;;10.70;40.27
50859;BME280;36826;47.514;19.056;2023-02-28T15:01:30;101137.59;;;10.88;39.78
50859;BME280;36826;47.514;19.056;2023-02-28T15:04:02;101142.06;;;12.17;38.32
50859;BME280;36826;47.514;19.056;2023-02-28T15:06:28;101137.63;;;12.39;37.23
50859;BME280;36826;47.514;19.056;2023-02-28T15:09:13;101143.50;;;10.56;40.21
50859;BME280;36826;47.514;19.056;2023-02-28T15:11:39;101141.28;;;11.23;39.72